Time;durP1;ratioP1;P1;durP2;ratioP2;P2;SDS_P1;SDS_P2;PMS_P1;PMS_P2;Temp;Humidity;BMP_temperature;BMP_pressure;BME280_temperature;BME280_humidity;BME280_pressure;Samples;Min_cycle;Max_cycle;Signal;HPM_P1;HPM_P2
2023/03/07 00:00:47;;;;;;;;;;;6.70;99.90;;;;;;6212658;23;19962;-86
2023/03/07 00:03:14;;;;;;;;;;;7.20;99.90;;;;;;6185968;23;20221;-86
2023/03/07 00:05:40;;;;;;;;;;;5.80;99.90;;;;;;6212270;23;19942;-85
2023/03/07 00:08:05;;;;;;;;;;;6.60;99.90;;;;;;6212101;23;19912;-86
2023/03/07 00:10:31;;;;;;;;;;;8.30;99.90;;;;;;6186182;23;19899;-85
2023/03/07 00:12:56;;;;;;;;;;;6.60;99.90;;;;;;6213548;23;20213;-86
2023/03/07 00:15:22;;;;;;;;;;;7.00;99.90;;;;;;6185590;23;19946;-85
2023/03/07 00:17:47;;;;;;;;;;;6.20;99.90;;;;;;6212493;23;20217;-86
2023/03/07 00:20:14;;;;;;;;;;;7.40;99.90;;;;;;6212396;23;19908;-86
2023/03/07 00:22:40;;;;;;;;;;;7.60;99.90;;;;;;6212412;23;19903;-86
2023/03/07 00:25:05;;;;;;;;;;;6.30;99.90;;;;;;6212147;23;20034;-85
2023/03/07 00:27:32;;;;;;;;;;;6.60;99.90;;;;;;6213415;23;19908;-86
2023/03/07 00:29:58;;;;;;;;;;;6.60;99.90;;;;;;6213405;23;19900;-86
2023/03/07 00:32:24;;;;;;;;;;;5.70;99.90;;;;;;6212227;23;20352;-86
2023/03/07 00:34:49;;;;;;;;;;;6.60;99.90;;;;;;6212330;23;19900;-85
2023/03/07 00:37:15;;;;;;;;;;;8.10;99.90;;;;;;6185504;23;19962;-85
2023/03/07 00:39:41;;;;;;;;;;;7.50;99.90;;;;;;6212424;23;19900;-86
2023/03/07 00:42:06;;;;;;;;;;;6.60;99.90;;;;;;6212437;23;19900;-85
2023/03/07 00:44:33;;;;;;;;;;;5.80;99.90;;;;;;6186329;23;19900;-86
2023/03/07 00:46:58;;;;;;;;;;;6.60;99.90;;;;;;6212922;23;20296;-86
2023/03/07 00:49:24;;;;;;;;;;;7.30;99.90;;;;;;6211914;23;19904;-85
2023/03/07 00:51:49;;;;;;;;;;;6.60;99.90;;;;;;6212332;23;19933;-85
2023/03/07 00:54:15;;;;;;;;;;;7.80;99.90;;;;;;6184756;23;19904;-85
2023/03/07 00:56:40;;;;;;;;;;;6.50;99.90;;;;;;6212407;23;19958;-86
2023/03/07 00:59:06;;;;;;;;;;;6.10;99.90;;;;;;6212159;23;19900;-85
2023/03/07 01:01:32;;;;;;;;;;;7.10;99.90;;;;;;6213110;23;19900;-86
2023/03/07 01:03:57;;;;;;;;;;;7.20;99.90;;;;;;6211865;23;20374;-85
2023/03/07 01:06:24;;;;;;;;;;;7.50;99.90;;;;;;6211566;23;19950;-85
2023/03/07 01:08:50;;;;;;;;;;;7.70;99.90;;;;;;6185199;23;19900;-86
2023/03/07 01:11:15;;;;;;;;;;;5.70;99.90;;;;;;6185081;23;19910;-86
2023/03/07 01:13:41;;;;;;;;;;;6.10;99.90;;;;;;6185392;23;20249;-86
2023/03/07 01:16:12;;;;;;;;;;;5.60;99.90;;;;;;6211901;23;19900;-86
2023/03/07 01:18:38;;;;;;;;;;;6.40;99.90;;;;;;6211791;23;19915;-86
2023/03/07 01:21:14;;;;;;;;;;;6.40;99.90;;;;;;6212905;23;19899;-85
2023/03/07 01:23:39;;;;;;;;;;;6.40;99.90;;;;;;6211869;23;19900;-86
2023/03/07 01:26:05;;;;;;;;;;;7.10;99.90;;;;;;6212153;23;20375;-86
2023/03/07 01:28:30;;;;;;;;;;;6.50;99.90;;;;;;6212801;23;19949;-85
2023/03/07 01:30:59;;;;;;;;;;;7.40;99.90;;;;;;6211866;23;20222;-86
2023/03/07 01:33:24;;;;;;;;;;;5.80;99.90;;;;;;6211493;23;20202;-85
2023/03/07 01:35:50;;;;;;;;;;;6.50;99.90;;;;;;6211950;23;19931;-87
2023/03/07 01:38:15;;;;;;;;;;;7.30;99.90;;;;;;6211551;23;19983;-87
2023/03/07 01:40:41;;;;;;;;;;;7.70;99.90;;;;;;6184926;23;19900;-86
2023/03/07 01:43:26;;;;;;;;;;;6.40;99.90;;;;;;6211603;23;20241;-86
2023/03/07 01:46:10;;;;;;;;;;;6.40;99.90;;;;;;6211554;23;20287;-86
2023/03/07 01:48:36;;;;;;;;;;;6.30;99.90;;;;;;6212443;23;19916;-85
2023/03/07 01:51:01;;;;;;;;;;;7.00;99.90;;;;;;6212415;23;19935;-85
2023/03/07 01:53:27;;;;;;;;;;;6.40;99.90;;;;;;6211317;23;19904;-86
2023/03/07 01:55:52;;;;;;;;;;;6.20;99.90;;;;;;6211247;23;19899;-86
2023/03/07 01:58:18;;;;;;;;;;;5.40;99.90;;;;;;6211489;23;19900;-86
2023/03/07 02:00:43;;;;;;;;;;;7.40;99.90;;;;;;6211702;23;20317;-86
2023/03/07 02:03:14;;;;;;;;;;;6.30;99.90;;;;;;6184812;23;19906;-85
2023/03/07 02:05:41;;;;;;;;;;;7.40;99.90;;;;;;6184657;23;19906;-86
2023/03/07 02:08:09;;;;;;;;;;;7.80;99.90;;;;;;6210621;23;20321;-85
2023/03/07 02:10:35;;;;;;;;;;;7.30;99.90;;;;;;6185796;23;19900;-85
2023/03/07 02:13:01;;;;;;;;;;;6.30;99.90;;;;;;6211468;23;19978;-86
2023/03/07 02:15:26;;;;;;;;;;;5.40;99.90;;;;;;6211068;23;20736;-87
2023/03/07 02:17:52;;;;;;;;;;;6.30;99.90;;;;;;6182571;23;20343;-86
2023/03/07 02:20:35;;;;;;;;;;;7.10;99.90;;;;;;6209946;23;19908;-87
2023/03/07 02:23:01;;;;;;;;;;;6.30;99.90;;;;;;6206961;23;19900;-87
2023/03/07 02:25:31;;;;;;;;;;;5.60;99.90;;;;;;6183297;23;20355;-85
2023/03/07 02:27:57;;;;;;;;;;;6.30;99.90;;;;;;6211253;23;19915;-87
2023/03/07 02:30:23;;;;;;;;;;;6.90;99.90;;;;;;6211456;23;19899;-87
2023/03/07 02:32:49;;;;;;;;;;;6.30;99.90;;;;;;6184721;23;19931;-85
2023/03/07 02:35:16;;;;;;;;;;;6.40;99.90;;;;;;6184426;23;19908;-87
2023/03/07 02:37:44;;;;;;;;;;;6.10;99.90;;;;;;6211171;23;20328;-87
2023/03/07 02:40:11;;;;;;;;;;;7.70;99.90;;;;;;6209775;23;20360;-87
2023/03/07 02:42:39;;;;;;;;;;;6.40;99.90;;;;;;6209322;23;20811;-87
2023/03/07 02:45:08;;;;;;;;;;;7.20;99.90;;;;;;6207025;23;19990;-86
2023/03/07 02:47:34;;;;;;;;;;;6.30;99.90;;;;;;6207975;23;19908;-86
2023/03/07 02:50:00;;;;;;;;;;;7.60;99.90;;;;;;6180229;23;19904;-87
2023/03/07 02:52:27;;;;;;;;;;;6.90;99.90;;;;;;6206257;23;19995;-87
2023/03/07 02:54:53;;;;;;;;;;;6.40;99.90;;;;;;6181410;23;19927;-87
2023/03/07 02:57:18;;;;;;;;;;;7.50;99.90;;;;;;6179974;23;19904;-86
2023/03/07 02:59:44;;;;;;;;;;;7.20;99.90;;;;;;6208955;23;19900;-86
2023/03/07 03:02:10;;;;;;;;;;;6.50;99.90;;;;;;6182119;23;19911;-86
2023/03/07 03:04:36;;;;;;;;;;;6.40;99.90;;;;;;6209403;23;19939;-86
2023/03/07 03:07:01;;;;;;;;;;;6.40;99.90;;;;;;6183813;23;19907;-86
2023/03/07 03:09:27;;;;;;;;;;;6.40;99.90;;;;;;6211034;23;19906;-87
2023/03/07 03:11:52;;;;;;;;;;;7.60;99.90;;;;;;6184473;23;19900;-86
2023/03/07 03:14:18;;;;;;;;;;;7.20;99.90;;;;;;6211204;23;19900;-85
2023/03/07 03:16:43;;;;;;;;;;;8.00;99.90;;;;;;6184388;23;19907;-86
2023/03/07 03:19:08;;;;;;;;;;;7.10;99.90;;;;;;6211885;23;19907;-86
2023/03/07 03:21:34;;;;;;;;;;;7.80;99.90;;;;;;6184347;23;19931;-86
2023/03/07 03:24:06;;;;;;;;;;;8.20;99.90;;;;;;6210785;23;19978;-85
2023/03/07 03:26:32;;;;;;;;;;;6.40;99.90;;;;;;6210022;23;20399;-85
2023/03/07 03:28:57;;;;;;;;;;;6.40;99.90;;;;;;6183763;23;19904;-85
2023/03/07 03:31:23;;;;;;;;;;;6.80;99.90;;;;;;6184132;23;19990;-85
2023/03/07 03:33:51;;;;;;;;;;;6.30;99.90;;;;;;6210673;23;19899;-85
2023/03/07 03:36:17;;;;;;;;;;;8.00;99.90;;;;;;6210610;23;19987;-87
2023/03/07 03:38:42;;;;;;;;;;;7.50;99.90;;;;;;6211068;23;20384;-85
2023/03/07 03:41:10;;;;;;;;;;;8.10;99.90;;;;;;6211838;23;19978;-87
2023/03/07 03:43:35;;;;;;;;;;;6.20;99.90;;;;;;6210559;23;19935;-86
2023/03/07 03:46:01;;;;;;;;;;;7.70;99.90;;;;;;6210771;23;20248;-85
2023/03/07 03:48:27;;;;;;;;;;;7.60;99.90;;;;;;6210616;23;19946;-87
2023/03/07 03:51:19;;;;;;;;;;;8.10;99.90;;;;;;6184315;23;19900;-87
2023/03/07 03:53:44;;;;;;;;;;;6.40;99.90;;;;;;6203753;23;19900;-86
2023/03/07 03:56:11;;;;;;;;;;;8.20;99.90;;;;;;6185598;23;19907;-87
2023/03/07 03:58:37;;;;;;;;;;;6.70;99.90;;;;;;6210642;23;19899;-85
2023/03/07 04:01:04;;;;;;;;;;;6.20;99.90;;;;;;6210539;23;20305;-86
2023/03/07 04:03:34;;;;;;;;;;;6.40;99.90;;;;;;6211010;23;19910;-86
2023/03/07 04:06:03;;;;;;;;;;;7.00;99.90;;;;;;6210906;23;19899;-86
2023/03/07 04:08:29;;;;;;;;;;;6.30;99.90;;;;;;6210749;23;19908;-85
2023/03/07 04:10:54;;;;;;;;;;;6.50;99.90;;;;;;6210719;23;20308;-85
2023/03/07 04:13:20;;;;;;;;;;;7.80;99.90;;;;;;6184128;23;19923;-86
2023/03/07 04:15:45;;;;;;;;;;;7.40;99.90;;;;;;6184286;23;19903;-86
2023/03/07 04:18:11;;;;;;;;;;;7.90;99.90;;;;;;6184993;23;19950;-86
2023/03/07 04:20:36;;;;;;;;;;;6.40;99.90;;;;;;6210812;23;19908;-86
2023/03/07 04:23:02;;;;;;;;;;;5.50;99.90;;;;;;6210646;23;20240;-86
2023/03/07 04:25:27;;;;;;;;;;;6.80;99.90;;;;;;6210714;23;20329;-86
2023/03/07 04:27:53;;;;;;;;;;;7.70;99.90;;;;;;6210503;23;19908;-86
2023/03/07 04:30:19;;;;;;;;;;;5.70;99.90;;;;;;6183742;23;19903;-87
2023/03/07 04:32:45;;;;;;;;;;;5.50;99.90;;;;;;6211229;23;19906;-85
2023/03/07 04:35:10;;;;;;;;;;;6.30;99.90;;;;;;6211138;23;19899;-85
2023/03/07 04:37:35;;;;;;;;;;;7.00;99.90;;;;;;6185359;23;19903;-86
2023/03/07 04:40:01;;;;;;;;;;;7.00;99.90;;;;;;6212168;23;19907;-85
2023/03/07 04:42:26;;;;;;;;;;;7.40;99.90;;;;;;6211266;23;19906;-84
2023/03/07 04:44:52;;;;;;;;;;;6.10;99.90;;;;;;6211966;23;19900;-83
2023/03/07 04:47:17;;;;;;;;;;;7.50;99.90;;;;;;6211993;23;19931;-86
2023/03/07 04:49:43;;;;;;;;;;;5.40;99.90;;;;;;6212667;23;19900;-83
2023/03/07 04:52:08;;;;;;;;;;;6.70;99.90;;;;;;6212205;23;19900;-83
2023/03/07 04:54:34;;;;;;;;;;;6.90;99.90;;;;;;6212060;23;20373;-84
2023/03/07 04:56:59;;;;;;;;;;;6.80;99.90;;;;;;6212247;23;20329;-84
2023/03/07 04:59:25;;;;;;;;;;;5.90;99.90;;;;;;6211842;23;19927;-83
2023/03/07 05:01:50;;;;;;;;;;;6.40;99.90;;;;;;6210788;23;19900;-85
2023/03/07 05:04:16;;;;;;;;;;;5.80;99.90;;;;;;6212112;23;19931;-83
2023/03/07 05:06:42;;;;;;;;;;;6.30;99.90;;;;;;6212828;23;19911;-83
2023/03/07 05:09:07;;;;;;;;;;;7.50;99.90;;;;;;6212021;23;19988;-83
2023/03/07 05:11:33;;;;;;;;;;;6.30;99.90;;;;;;6211327;23;19900;-86
2023/03/07 05:13:58;;;;;;;;;;;6.30;99.90;;;;;;6211704;23;20248;-83
2023/03/07 05:16:24;;;;;;;;;;;5.60;99.90;;;;;;6212108;23;19939;-86
2023/03/07 05:18:49;;;;;;;;;;;6.30;99.90;;;;;;6205924;23;19925;-83
2023/03/07 05:21:15;;;;;;;;;;;6.00;99.90;;;;;;6184194;23;19907;-83
2023/03/07 05:23:40;;;;;;;;;;;5.80;99.90;;;;;;6210250;23;19900;-83
2023/03/07 05:26:06;;;;;;;;;;;7.20;99.90;;;;;;6183609;23;20272;-84
2023/03/07 05:28:31;;;;;;;;;;;6.20;99.90;;;;;;6209609;23;19995;-82
2023/03/07 05:30:57;;;;;;;;;;;6.20;99.90;;;;;;6209089;23;19974;-82
2023/03/07 05:33:22;;;;;;;;;;;5.90;99.90;;;;;;6210619;23;20353;-82
2023/03/07 05:35:48;;;;;;;;;;;5.40;99.90;;;;;;6211759;23;20284;-82
2023/03/07 05:38:13;;;;;;;;;;;6.00;99.90;;;;;;6212723;23;19971;-83
2023/03/07 05:40:39;;;;;;;;;;;6.20;99.90;;;;;;6211892;23;19977;-83
2023/03/07 05:43:04;;;;;;;;;;;5.90;99.90;;;;;;6211724;23;20112;-82
2023/03/07 05:45:30;;;;;;;;;;;6.40;99.90;;;;;;6211057;23;19900;-83
2023/03/07 05:47:56;;;;;;;;;;;6.20;99.90;;;;;;6184483;23;19935;-83
2023/03/07 05:50:21;;;;;;;;;;;7.50;99.90;;;;;;6211779;23;20312;-84
2023/03/07 05:52:47;;;;;;;;;;;6.20;99.90;;;;;;6213142;23;20336;-84
2023/03/07 05:55:12;;;;;;;;;;;6.00;99.90;;;;;;6211598;23;19932;-84
2023/03/07 05:57:38;;;;;;;;;;;7.20;99.90;;;;;;6211319;23;20129;-84
2023/03/07 06:00:05;;;;;;;;;;;7.00;99.90;;;;;;6211179;23;19912;-84
2023/03/07 06:02:30;;;;;;;;;;;6.10;99.90;;;;;;6211637;23;19903;-86
2023/03/07 06:04:56;;;;;;;;;;;6.10;99.90;;;;;;6211587;23;19904;-86
2023/03/07 06:07:21;;;;;;;;;;;6.20;99.90;;;;;;6211591;23;19908;-84
2023/03/07 06:09:47;;;;;;;;;;;7.60;99.90;;;;;;6212410;23;20233;-85
2023/03/07 06:12:12;;;;;;;;;;;6.50;99.90;;;;;;6211392;23;19900;-83
2023/03/07 06:14:38;;;;;;;;;;;6.00;99.90;;;;;;6211622;23;19903;-83
2023/03/07 06:17:04;;;;;;;;;;;6.20;99.90;;;;;;6211760;23;20329;-83
2023/03/07 06:19:30;;;;;;;;;;;6.10;99.90;;;;;;6210931;23;19970;-83
2023/03/07 06:21:55;;;;;;;;;;;6.90;99.90;;;;;;6211519;23;20317;-83
2023/03/07 06:24:21;;;;;;;;;;;6.20;99.90;;;;;;6211382;23;20277;-83
2023/03/07 06:26:46;;;;;;;;;;;5.10;99.90;;;;;;6212369;23;19994;-83
2023/03/07 06:29:13;;;;;;;;;;;6.10;99.90;;;;;;6211468;23;19920;-83
2023/03/07 06:31:38;;;;;;;;;;;7.10;99.90;;;;;;6211634;23;20218;-83
2023/03/07 06:34:04;;;;;;;;;;;6.10;99.90;;;;;;6211489;23;20280;-83
2023/03/07 06:36:29;;;;;;;;;;;6.00;99.90;;;;;;6211490;23;19900;-83
2023/03/07 06:38:55;;;;;;;;;;;6.10;99.90;;;;;;6211359;23;20357;-83
2023/03/07 06:41:21;;;;;;;;;;;6.10;99.90;;;;;;6185414;23;19900;-83
2023/03/07 06:43:49;;;;;;;;;;;6.10;99.90;;;;;;6184986;23;19986;-84
2023/03/07 06:46:16;;;;;;;;;;;6.10;99.90;;;;;;6211306;23;19900;-83
2023/03/07 06:48:42;;;;;;;;;;;5.50;99.90;;;;;;6211390;23;19942;-84
2023/03/07 06:51:08;;;;;;;;;;;6.00;99.90;;;;;;6211301;23;20240;-83
2023/03/07 06:53:34;;;;;;;;;;;6.10;99.90;;;;;;6211180;23;20325;-83
2023/03/07 06:55:59;;;;;;;;;;;5.50;99.90;;;;;;6211145;23;19900;-83
2023/03/07 06:58:25;;;;;;;;;;;6.10;99.90;;;;;;6209872;23;19899;-83
2023/03/07 07:00:50;;;;;;;;;;;6.20;99.90;;;;;;6185583;23;19900;-84
2023/03/07 07:03:17;;;;;;;;;;;6.10;99.90;;;;;;6211279;23;19911;-83
2023/03/07 07:05:42;;;;;;;;;;;6.10;99.90;;;;;;6211165;23;20336;-83
2023/03/07 07:08:08;;;;;;;;;;;6.80;99.90;;;;;;6184272;23;19907;-83
2023/03/07 07:10:33;;;;;;;;;;;5.50;99.90;;;;;;6184486;23;19900;-83
2023/03/07 07:12:59;;;;;;;;;;;6.10;99.90;;;;;;6210643;23;19932;-83
2023/03/07 07:15:25;;;;;;;;;;;6.20;99.90;;;;;;6211296;23;20329;-84
2023/03/07 07:17:50;;;;;;;;;;;6.20;99.90;;;;;;6212054;23;20321;-84
2023/03/07 07:20:16;;;;;;;;;;;6.20;99.90;;;;;;6210820;23;19911;-83
2023/03/07 07:22:42;;;;;;;;;;;6.30;99.90;;;;;;6210958;23;19927;-84
2023/03/07 07:25:08;;;;;;;;;;;6.30;99.90;;;;;;6184164;23;19995;-84
2023/03/07 07:27:35;;;;;;;;;;;6.30;99.90;;;;;;6210764;23;19907;-84
2023/03/07 07:30:01;;;;;;;;;;;6.10;99.90;;;;;;6210210;23;19915;-83
2023/03/07 07:32:26;;;;;;;;;;;6.00;99.90;;;;;;6184442;23;19903;-84
2023/03/07 07:34:52;;;;;;;;;;;5.90;99.90;;;;;;6212028;23;19954;-84
2023/03/07 07:37:17;;;;;;;;;;;6.60;99.90;;;;;;6210855;23;19978;-84
2023/03/07 07:39:44;;;;;;;;;;;6.20;99.90;;;;;;6210751;23;19900;-84
2023/03/07 07:42:12;;;;;;;;;;;6.30;99.90;;;;;;6210997;23;19899;-83
2023/03/07 07:44:37;;;;;;;;;;;6.40;99.90;;;;;;6210480;23;19923;-84
2023/03/07 07:47:03;;;;;;;;;;;6.30;99.90;;;;;;6210868;23;20329;-84
2023/03/07 07:49:28;;;;;;;;;;;6.30;99.90;;;;;;6210887;23;19900;-85
2023/03/07 07:51:55;;;;;;;;;;;6.60;99.90;;;;;;6211825;23;20292;-84
2023/03/07 07:54:20;;;;;;;;;;;6.50;99.90;;;;;;6211799;23;20324;-84
2023/03/07 07:56:46;;;;;;;;;;;6.30;99.90;;;;;;6210981;23;19931;-84
2023/03/07 07:59:11;;;;;;;;;;;6.90;99.90;;;;;;6210913;23;19900;-84
2023/03/07 08:01:37;;;;;;;;;;;6.30;99.90;;;;;;6209418;23;19900;-84
2023/03/07 08:04:02;;;;;;;;;;;6.40;99.90;;;;;;6184097;23;19907;-85
2023/03/07 08:06:28;;;;;;;;;;;6.50;99.90;;;;;;6210531;23;19900;-84
2023/03/07 08:08:54;;;;;;;;;;;6.60;99.90;;;;;;6211674;23;19904;-84
2023/03/07 08:11:20;;;;;;;;;;;6.40;99.90;;;;;;6212231;23;19907;-84
2023/03/07 08:13:46;;;;;;;;;;;6.60;99.90;;;;;;6212389;23;20178;-84
2023/03/07 08:16:13;;;;;;;;;;;6.70;99.90;;;;;;6212815;23;20325;-83
2023/03/07 08:18:39;;;;;;;;;;;6.60;99.90;;;;;;6212698;23;19961;-84
2023/03/07 08:21:05;;;;;;;;;;;6.70;99.90;;;;;;6212602;23;19946;-84
2023/03/07 08:23:30;;;;;;;;;;;6.70;99.90;;;;;;6212621;23;20333;-84
2023/03/07 08:26:00;;;;;;;;;;;6.00;99.90;;;;;;6214028;23;19904;-84
2023/03/07 08:28:26;;;;;;;;;;;6.70;99.90;;;;;;6213031;23;20284;-84
2023/03/07 08:30:52;;;;;;;;;;;6.70;99.90;;;;;;6213670;23;19900;-83
2023/03/07 08:33:17;;;;;;;;;;;6.40;99.90;;;;;;6212655;23;19904;-84
2023/03/07 08:35:43;;;;;;;;;;;6.50;99.90;;;;;;6212467;23;20248;-84
2023/03/07 08:38:08;;;;;;;;;;;6.80;99.90;;;;;;6212349;23;19981;-84
2023/03/07 08:40:34;;;;;;;;;;;6.50;99.90;;;;;;6212737;23;20241;-84
2023/03/07 08:42:59;;;;;;;;;;;6.60;99.90;;;;;;6212297;23;19899;-84
2023/03/07 08:45:25;;;;;;;;;;;7.70;99.90;;;;;;6213510;23;19899;-84
2023/03/07 08:47:52;;;;;;;;;;;7.80;99.90;;;;;;6212329;23;19908;-84
2023/03/07 08:50:18;;;;;;;;;;;6.90;99.90;;;;;;6212452;23;20564;-84
2023/03/07 08:52:43;;;;;;;;;;;7.10;99.90;;;;;;6211691;23;19979;-84
2023/03/07 08:55:09;;;;;;;;;;;6.70;99.90;;;;;;6212578;23;19979;-84
2023/03/07 08:57:34;;;;;;;;;;;7.30;99.90;;;;;;6212443;23;20225;-84
2023/03/07 09:00:00;;;;;;;;;;;8.00;99.90;;;;;;6212420;23;20348;-84
2023/03/07 09:02:25;;;;;;;;;;;7.40;99.90;;;;;;6213348;23;19900;-84
2023/03/07 09:04:51;;;;;;;;;;;7.70;99.90;;;;;;6212309;23;20245;-84
2023/03/07 09:07:18;;;;;;;;;;;7.40;99.90;;;;;;6212113;23;19994;-84
2023/03/07 09:09:43;;;;;;;;;;;7.10;99.90;;;;;;6185374;23;20343;-84
2023/03/07 09:12:09;;;;;;;;;;;7.50;99.90;;;;;;6185247;23;19899;-84
2023/03/07 09:14:34;;;;;;;;;;;6.90;99.90;;;;;;6212262;23;19915;-84
2023/03/07 09:17:00;;;;;;;;;;;8.00;99.90;;;;;;6212159;23;20210;-84
2023/03/07 09:19:25;;;;;;;;;;;8.50;99.90;;;;;;6213339;23;19907;-84
2023/03/07 09:21:51;;;;;;;;;;;8.00;99.90;;;;;;6211968;23;19900;-85
2023/03/07 09:24:16;;;;;;;;;;;8.20;99.90;;;;;;6211770;23;19903;-85
2023/03/07 09:26:42;;;;;;;;;;;8.80;99.90;;;;;;6212036;23;19908;-84
2023/03/07 09:29:08;;;;;;;;;;;7.90;99.90;;;;;;6212083;23;19954;-84
2023/03/07 09:31:33;;;;;;;;;;;8.50;99.90;;;;;;6212079;23;19903;-84
2023/03/07 09:33:59;;;;;;;;;;;8.30;99.90;;;;;;6212969;23;19962;-84
2023/03/07 09:36:24;;;;;;;;;;;7.90;99.90;;;;;;6212634;23;20317;-85
2023/03/07 09:38:50;;;;;;;;;;;8.30;99.90;;;;;;6211583;23;20280;-84
2023/03/07 09:41:34;;;;;;;;;;;8.00;99.90;;;;;;6185450;23;19906;-84
2023/03/07 09:44:03;;;;;;;;;;;8.10;99.90;;;;;;6212384;23;19971;-84
2023/03/07 09:46:41;;;;;;;;;;;8.20;99.90;;;;;;6212300;23;19903;-85
2023/03/07 09:49:06;;;;;;;;;;;8.20;99.90;;;;;;6211861;23;19914;-84
2023/03/07 09:51:32;;;;;;;;;;;8.20;99.90;;;;;;6212141;23;19978;-84
2023/03/07 09:54:17;;;;;;;;;;;8.20;99.90;;;;;;6212936;23;19978;-84
2023/03/07 09:56:46;;;;;;;;;;;8.40;99.90;;;;;;6209543;23;19962;-85
2023/03/07 09:59:30;;;;;;;;;;;8.20;99.90;;;;;;6184877;23;19899;-84
2023/03/07 10:02:14;;;;;;;;;;;8.20;99.90;;;;;;6211803;23;19899;-84
2023/03/07 10:04:48;;;;;;;;;;;8.30;99.90;;;;;;6211711;23;20293;-84
2023/03/07 10:07:15;;;;;;;;;;;8.40;99.90;;;;;;6211427;23;19910;-84
2023/03/07 10:09:41;;;;;;;;;;;8.40;99.90;;;;;;6211592;23;19950;-84
2023/03/07 10:12:07;;;;;;;;;;;8.40;99.90;;;;;;6211316;23;19926;-84
2023/03/07 10:14:44;;;;;;;;;;;8.40;99.90;;;;;;6184691;23;19935;-84
2023/03/07 10:17:10;;;;;;;;;;;8.50;99.90;;;;;;6211213;23;19899;-84
2023/03/07 10:19:59;;;;;;;;;;;8.70;99.90;;;;;;6211941;23;19930;-84
2023/03/07 10:22:30;;;;;;;;;;;8.90;99.90;;;;;;6184704;23;19907;-84
2023/03/07 10:25:04;;;;;;;;;;;9.10;99.90;;;;;;6211635;23;19950;-84
2023/03/07 10:27:29;;;;;;;;;;;9.20;99.90;;;;;;6212637;23;19970;-84
2023/03/07 10:29:57;;;;;;;;;;;9.30;99.90;;;;;;6210929;23;20325;-84
2023/03/07 10:32:34;;;;;;;;;;;9.50;99.90;;;;;;6211430;23;20370;-84
2023/03/07 10:35:14;;;;;;;;;;;9.50;99.90;;;;;;6211734;23;19900;-84
2023/03/07 10:37:49;;;;;;;;;;;9.70;99.90;;;;;;6211531;23;19900;-84
2023/03/07 10:40:17;;;;;;;;;;;9.90;99.90;;;;;;6184302;23;19900;-84
2023/03/07 10:42:43;;;;;;;;;;;9.90;99.90;;;;;;6211307;23;19899;-84
2023/03/07 10:45:15;;;;;;;;;;;10.00;99.90;;;;;;6211264;23;19906;-84
2023/03/07 10:47:40;;;;;;;;;;;10.00;99.90;;;;;;6210955;23;19914;-84
2023/03/07 10:50:15;;;;;;;;;;;10.00;99.90;;;;;;6210915;23;19924;-84
2023/03/07 10:53:01;;;;;;;;;;;9.90;99.90;;;;;;6211154;23;19900;-84
2023/03/07 10:55:32;;;;;;;;;;;9.90;99.90;;;;;;6208920;23;19935;-84
2023/03/07 10:58:12;;;;;;;;;;;9.90;99.90;;;;;;6211246;23;20214;-84
2023/03/07 11:00:37;;;;;;;;;;;9.90;99.90;;;;;;6184782;23;19930;-84
2023/03/07 11:03:03;;;;;;;;;;;9.80;99.90;;;;;;6212264;23;19900;-84
2023/03/07 11:05:30;;;;;;;;;;;9.80;99.90;;;;;;6210413;23;20232;-84
2023/03/07 11:07:56;;;;;;;;;;;9.80;99.90;;;;;;6209303;23;20336;-84
2023/03/07 11:10:40;;;;;;;;;;;9.80;99.90;;;;;;6210983;23;19907;-83
2023/03/07 11:13:12;;;;;;;;;;;9.90;99.90;;;;;;6211336;23;19904;-84
2023/03/07 11:15:37;;;;;;;;;;;10.00;99.90;;;;;;6183661;23;20287;-84
2023/03/07 11:18:03;;;;;;;;;;;10.00;99.90;;;;;;6212074;23;19900;-84
2023/03/07 11:20:47;;;;;;;;;;;10.00;99.90;;;;;;6210897;23;19915;-84
2023/03/07 11:23:17;;;;;;;;;;;9.90;99.90;;;;;;6211180;23;19900;-84
2023/03/07 11:25:42;;;;;;;;;;;9.90;99.90;;;;;;6210211;23;20022;-84
2023/03/07 11:28:26;;;;;;;;;;;10.00;99.90;;;;;;6184315;23;19912;-85
2023/03/07 11:30:55;;;;;;;;;;;10.00;99.90;;;;;;6210853;23;19907;-84
2023/03/07 11:33:26;;;;;;;;;;;10.10;99.90;;;;;;6210771;23;19900;-84
2023/03/07 11:36:11;;;;;;;;;;;10.10;99.90;;;;;;6210880;23;19942;-84
2023/03/07 11:38:43;;;;;;;;;;;10.10;99.90;;;;;;6211740;23;19907;-84
2023/03/07 11:41:08;;;;;;;;;;;10.10;99.90;;;;;;6210606;23;19899;-84
2023/03/07 11:43:34;;;;;;;;;;;10.50;99.90;;;;;;6211770;23;19900;-84
2023/03/07 11:46:04;;;;;;;;;;;10.10;99.90;;;;;;6183817;23;19903;-84
2023/03/07 11:48:32;;;;;;;;;;;10.20;99.90;;;;;;6210898;23;20329;-85
2023/03/07 11:50:58;;;;;;;;;;;10.30;99.90;;;;;;6210951;23;19911;-85
2023/03/07 11:53:39;;;;;;;;;;;10.40;99.90;;;;;;6210751;23;19899;-84
2023/03/07 11:56:16;;;;;;;;;;;10.40;99.90;;;;;;6211742;23;19900;-84
2023/03/07 11:58:41;;;;;;;;;;;10.30;99.90;;;;;;6210844;23;19900;-84
2023/03/07 12:01:13;;;;;;;;;;;10.20;99.90;;;;;;6210795;23;19910;-85
2023/03/07 12:03:41;;;;;;;;;;;10.20;99.90;;;;;;6211174;23;20329;-84
2023/03/07 12:06:25;;;;;;;;;;;10.20;99.90;;;;;;6211710;23;20337;-85
2023/03/07 12:08:57;;;;;;;;;;;10.30;99.90;;;;;;6184212;23;19911;-84
2023/03/07 12:11:41;;;;;;;;;;;10.50;99.90;;;;;;6210891;23;19900;-85
2023/03/07 12:14:16;;;;;;;;;;;10.70;99.90;;;;;;6211742;23;19927;-84
2023/03/07 12:16:41;;;;;;;;;;;10.60;99.90;;;;;;6210771;23;19907;-84
2023/03/07 12:19:25;;;;;;;;;;;10.60;99.90;;;;;;6211624;23;19911;-84
2023/03/07 12:22:01;;;;;;;;;;;10.50;99.90;;;;;;6210818;23;19899;-85
2023/03/07 12:24:29;;;;;;;;;;;10.50;99.90;;;;;;6209862;23;19900;-84
2023/03/07 12:26:57;;;;;;;;;;;10.40;99.90;;;;;;6210228;23;19954;-84
2023/03/07 12:29:34;;;;;;;;;;;10.30;99.90;;;;;;6210612;23;20333;-85
2023/03/07 12:32:02;;;;;;;;;;;10.30;99.90;;;;;;6184169;23;19908;-84
2023/03/07 12:34:35;;;;;;;;;;;10.40;99.90;;;;;;6183987;23;19991;-84
2023/03/07 12:37:05;;;;;;;;;;;10.50;99.90;;;;;;6183983;23;19904;-84
2023/03/07 12:39:31;;;;;;;;;;;10.50;99.90;;;;;;6210038;23;19923;-84
2023/03/07 12:42:15;;;;;;;;;;;10.50;99.90;;;;;;6183943;23;20344;-84
2023/03/07 12:44:51;;;;;;;;;;;10.60;99.90;;;;;;6184239;23;19900;-84
2023/03/07 12:47:31;;;;;;;;;;;10.60;99.90;;;;;;6210423;23;19954;-84
2023/03/07 12:50:03;;;;;;;;;;;10.70;99.90;;;;;;6210459;23;19979;-84
2023/03/07 12:52:33;;;;;;;;;;;10.80;99.90;;;;;;6210147;23;19900;-85
2023/03/07 12:55:03;;;;;;;;;;;10.80;99.90;;;;;;6210221;23;19899;-84
2023/03/07 12:57:31;;;;;;;;;;;10.70;99.90;;;;;;6212015;23;19927;-84
2023/03/07 12:59:58;;;;;;;;;;;10.70;99.90;;;;;;6212344;23;19910;-84
2023/03/07 13:02:27;;;;;;;;;;;10.60;99.90;;;;;;6212311;23;19900;-84
2023/03/07 13:04:53;;;;;;;;;;;10.40;99.90;;;;;;6212194;23;19907;-84
2023/03/07 13:07:26;;;;;;;;;;;10.40;99.90;;;;;;6212294;23;19907;-84
2023/03/07 13:09:53;;;;;;;;;;;10.40;99.90;;;;;;6212425;23;19987;-84
2023/03/07 13:12:23;;;;;;;;;;;10.40;99.90;;;;;;6211602;23;19900;-84
2023/03/07 13:14:48;;;;;;;;;;;10.40;99.90;;;;;;6212141;23;20244;-85
2023/03/07 13:17:25;;;;;;;;;;;10.40;99.90;;;;;;6212167;23;19900;-85
2023/03/07 13:19:52;;;;;;;;;;;10.40;99.90;;;;;;6212138;23;19912;-84
2023/03/07 13:22:18;;;;;;;;;;;10.40;99.90;;;;;;6212268;23;19900;-84
2023/03/07 13:24:44;;;;;;;;;;;10.40;99.90;;;;;;6211721;23;20245;-84
2023/03/07 13:27:13;;;;;;;;;;;10.40;99.90;;;;;;6212513;23;19910;-84
2023/03/07 13:29:57;;;;;;;;;;;10.40;99.90;;;;;;6213017;23;19978;-84
2023/03/07 13:32:41;;;;;;;;;;;10.40;99.90;;;;;;6212037;23;20236;-84
2023/03/07 13:35:07;;;;;;;;;;;10.50;99.90;;;;;;6212058;23;19900;-84
2023/03/07 13:38:03;;;;;;;;;;;10.60;99.90;;;;;;6211883;23;19904;-85
2023/03/07 13:40:34;;;;;;;;;;;10.70;99.90;;;;;;6080342;23;19985;-84
2023/03/07 13:43:03;;;;;;;;;;;10.70;99.90;;;;;;6184835;23;19907;-84
2023/03/07 13:45:37;;;;;;;;;;;10.70;99.90;;;;;;6211990;23;19907;-84
2023/03/07 13:48:23;;;;;;;;;;;10.60;99.90;;;;;;6211848;23;20357;-84
2023/03/07 13:50:52;;;;;;;;;;;10.60;99.90;;;;;;6111484;23;19900;-84
2023/03/07 13:53:19;;;;;;;;;;;10.60;99.90;;;;;;6185263;23;20287;-84
2023/03/07 13:55:47;;;;;;;;;;;10.60;99.90;;;;;;6211390;23;19923;-84
2023/03/07 13:58:22;;;;;;;;;;;10.70;99.90;;;;;;6212345;23;19946;-84
2023/03/07 14:00:53;;;;;;;;;;;10.70;99.90;;;;;;6211592;23;19928;-84
2023/03/07 14:03:24;;;;;;;;;;;10.80;99.90;;;;;;6184958;23;20222;-84
2023/03/07 14:05:50;;;;;;;;;;;10.70;99.90;;;;;;6211843;23;19900;-84
2023/03/07 14:08:16;;;;;;;;;;;10.70;99.90;;;;;;6211246;23;19908;-84
2023/03/07 14:10:43;;;;;;;;;;;10.60;99.90;;;;;;6212705;23;19900;-84
2023/03/07 14:13:17;;;;;;;;;;;10.60;99.90;;;;;;6211265;23;20356;-84
2023/03/07 14:15:46;;;;;;;;;;;10.60;99.90;;;;;;6212532;23;19899;-84
2023/03/07 14:18:38;;;;;;;;;;;10.60;99.90;;;;;;6212871;23;19975;-84
2023/03/07 14:21:16;;;;;;;;;;;10.60;99.90;;;;;;6211668;23;19914;-85
2023/03/07 14:23:54;;;;;;;;;;;10.60;99.90;;;;;;6212599;23;19986;-84
2023/03/07 14:26:19;;;;;;;;;;;10.60;99.90;;;;;;6211306;23;19916;-84
2023/03/07 14:28:50;;;;;;;;;;;10.50;99.90;;;;;;6211128;23;20329;-84
2023/03/07 14:31:42;;;;;;;;;;;10.50;99.90;;;;;;6211593;23;19906;-84